Time;durP1;ratioP1;P1;durP2;ratioP2;P2;SDS_P1;SDS_P2;PMS_P1;PMS_P2;Temp;Humidity;BMP_temperature;BMP_pressure;BME280_temperature;BME280_humidity;BME280_pressure;Samples;Min_cycle;Max_cycle;Signal;HPM_P1;HPM_P2
2021/12/26 00:00:20;;;;;;;3.03;1.80;;;-2.30;99.90;;;;;;4930646;29;20222;-77
2021/12/26 00:02:47;;;;;;;4.73;2.43;;;-2.40;99.90;;;;;;4930379;29;21270;-78
2021/12/26 00:05:15;;;;;;;2.97;2.03;;;-2.30;99.90;;;;;;4930501;29;20217;-77
2021/12/26 00:07:42;;;;;;;3.90;1.97;;;-2.30;99.90;;;;;;4931336;29;20245;-80
2021/12/26 00:10:11;;;;;;;4.03;1.63;;;-2.30;99.90;;;;;;4930670;29;20217;-79
2021/12/26 00:12:38;;;;;;;5.60;1.90;;;-2.30;99.90;;;;;;4929785;29;20210;-78
2021/12/26 00:15:07;;;;;;;4.30;2.07;;;-2.30;99.90;;;;;;4930061;29;20212;-79
2021/12/26 00:17:34;;;;;;;3.57;1.93;;;-2.30;99.90;;;;;;4930168;29;20205;-79
2021/12/26 00:20:01;;;;;;;3.33;1.90;;;-2.30;99.90;;;;;;4929635;29;20799;-79
2021/12/26 00:22:29;;;;;;;3.30;1.80;;;-2.40;99.90;;;;;;4929955;29;20213;-77
2021/12/26 00:24:56;;;;;;;3.27;1.97;;;-2.40;99.90;;;;;;4929775;29;20198;-79
2021/12/26 00:27:23;;;;;;;2.60;1.40;;;-2.40;99.90;;;;;;4928992;29;20214;-79
2021/12/26 00:29:49;;;;;;;2.77;1.80;;;-2.40;99.90;;;;;;4929621;29;20860;-78
2021/12/26 00:32:16;;;;;;;7.20;1.90;;;-2.40;99.90;;;;;;4930025;29;20245;-78
2021/12/26 00:34:44;;;;;;;3.10;1.83;;;-2.40;99.90;;;;;;4928977;29;20209;-78
2021/12/26 00:37:12;;;;;;;2.73;1.80;;;-2.40;99.90;;;;;;4929660;29;20654;-80
2021/12/26 00:39:40;;;;;;;2.43;1.67;;;-2.40;99.90;;;;;;4930175;29;20206;-79
2021/12/26 00:42:08;;;;;;;2.60;2.10;;;-2.40;99.90;;;;;;4929454;29;20217;-79
2021/12/26 00:44:39;;;;;;;5.80;2.10;;;-2.40;99.90;;;;;;4931724;29;20311;-78
2021/12/26 00:47:06;;;;;;;4.80;2.10;;;-2.40;99.90;;;;;;4948471;29;20241;-79
2021/12/26 00:49:33;;;;;;;4.07;2.57;;;-2.40;99.90;;;;;;4938145;29;20464;-79
2021/12/26 00:52:00;;;;;;;4.23;2.00;;;-2.40;99.90;;;;;;4929499;29;20209;-80
2021/12/26 00:54:27;;;;;;;3.33;2.13;;;-2.40;99.90;;;;;;4929000;29;20213;-78
2021/12/26 00:56:56;;;;;;;2.97;1.70;;;-2.40;99.90;;;;;;4930078;29;20209;-80
2021/12/26 00:59:23;;;;;;;3.63;2.43;;;-2.40;99.90;;;;;;4929135;29;20315;-79
2021/12/26 01:01:50;;;;;;;3.73;2.20;;;-2.40;99.90;;;;;;4928670;29;20233;-78
2021/12/26 01:04:17;;;;;;;5.93;1.70;;;-2.50;99.90;;;;;;4929808;29;20197;-78
2021/12/26 01:06:44;;;;;;;2.57;1.90;;;-2.40;99.90;;;;;;4930894;29;20198;-80
2021/12/26 01:09:15;;;;;;;3.23;1.83;;;-2.40;99.90;;;;;;4947738;29;20209;-78
2021/12/26 01:11:48;;;;;;;2.97;1.60;;;-2.50;99.90;;;;;;4948389;29;20205;-79
2021/12/26 01:14:24;;;;;;;4.00;1.67;;;-2.50;99.90;;;;;;4930058;29;20218;-78
2021/12/26 01:17:00;;;;;;;1.93;1.40;;;-2.50;99.90;;;;;;4928638;29;20632;-79
2021/12/26 01:19:33;;;;;;;2.10;1.70;;;-2.50;99.90;;;;;;4929159;29;20471;-80
2021/12/26 01:22:00;;;;;;;3.00;1.67;;;-2.50;99.90;;;;;;4929705;29;20233;-79
2021/12/26 01:24:27;;;;;;;1.90;1.50;;;-2.50;99.90;;;;;;4928494;29;20209;-80
2021/12/26 01:26:54;;;;;;;4.50;1.80;;;-2.50;99.90;;;;;;4929298;29;20209;-77
2021/12/26 01:29:22;;;;;;;4.40;1.70;;;-2.50;99.90;;;;;;4928895;29;20205;-79
2021/12/26 01:31:49;;;;;;;3.07;1.70;;;-2.60;99.90;;;;;;4928769;29;20245;-79
2021/12/26 01:34:16;;;;;;;2.23;1.73;;;-2.50;99.90;;;;;;4928979;29;20248;-77
2021/12/26 01:36:43;;;;;;;2.43;1.70;;;-2.50;99.90;;;;;;4928587;29;20206;-78
2021/12/26 01:39:10;;;;;;;2.30;1.60;;;-2.50;99.90;;;;;;4928732;29;20755;-80
2021/12/26 01:41:41;;;;;;;2.17;1.93;;;-2.50;99.90;;;;;;4928308;29;20241;-77
2021/12/26 01:44:11;;;;;;;2.22;1.80;;;-2.50;99.90;;;;;;4928008;29;20856;-78
2021/12/26 01:46:40;;;;;;;2.13;1.57;;;-2.50;99.90;;;;;;4928662;29;20275;-79
2021/12/26 01:49:11;;;;;;;2.93;1.60;;;-2.50;99.90;;;;;;4929155;29;20210;-79
2021/12/26 01:51:38;;;;;;;3.10;1.50;;;-2.50;99.90;;;;;;4928290;29;20199;-78
2021/12/26 01:54:09;;;;;;;3.90;1.57;;;-2.50;99.90;;;;;;4929320;29;20214;-80
2021/12/26 01:56:38;;;;;;;2.10;1.40;;;-2.50;99.90;;;;;;4927535;29;20605;-80
2021/12/26 01:59:05;;;;;;;1.50;1.40;;;-2.50;99.90;;;;;;4928045;29;20209;-79
2021/12/26 02:01:32;;;;;;;3.53;1.77;;;-2.60;99.90;;;;;;4928003;29;20732;-78
2021/12/26 02:04:01;;;;;;;3.90;1.60;;;-2.50;99.90;;;;;;4928610;29;20897;-78
2021/12/26 02:06:28;;;;;;;2.17;1.50;;;-2.50;99.90;;;;;;4928228;29;20220;-79
2021/12/26 02:08:55;;;;;;;2.20;1.70;;;-2.60;99.90;;;;;;4928541;29;20206;-79
2021/12/26 02:11:22;;;;;;;3.50;2.00;;;-2.60;99.90;;;;;;4928296;29;20213;-79
2021/12/26 02:13:48;;;;;;;2.73;1.70;;;-2.60;99.90;;;;;;4927519;29;20210;-79
2021/12/26 02:16:16;;;;;;;4.60;2.00;;;-2.60;99.90;;;;;;4928573;29;20547;-79
2021/12/26 02:18:42;;;;;;;2.67;1.77;;;-2.60;99.90;;;;;;4927820;29;20225;-79
2021/12/26 02:21:22;;;;;;;2.97;2.00;;;-2.60;99.90;;;;;;4927845;29;20225;-79
2021/12/26 02:23:57;;;;;;;2.33;1.87;;;-2.60;99.90;;;;;;4928595;29;20300;-80
2021/12/26 02:29:08;;;;;;;3.77;2.00;;;-2.60;99.90;;;;;;4928547;29;20204;-79
2021/12/26 02:31:35;;;;;;;4.40;2.40;;;-2.60;99.90;;;;;;4928178;29;20473;-79
2021/12/26 02:34:01;;;;;;;2.97;1.83;;;-2.70;99.90;;;;;;4928207;29;20589;-78
2021/12/26 02:36:30;;;;;;;4.03;2.20;;;-2.60;99.90;;;;;;4927802;29;20480;-79
2021/12/26 02:38:58;;;;;;;3.67;1.70;;;-2.70;99.90;;;;;;4928191;29;20403;-78
2021/12/26 02:41:25;;;;;;;2.43;1.80;;;-2.70;99.90;;;;;;4927950;29;20890;-79
2021/12/26 02:43:52;;;;;;;3.47;1.70;;;-2.70;99.90;;;;;;4928779;29;20234;-80
2021/12/26 02:46:19;;;;;;;2.67;1.80;;;-2.70;99.90;;;;;;4944601;29;20939;-79
2021/12/26 02:48:46;;;;;;;2.53;1.80;;;-2.70;99.90;;;;;;4946795;29;21027;-78
2021/12/26 02:51:13;;;;;;;2.30;1.77;;;-2.70;99.90;;;;;;4937793;29;20209;-79
2021/12/26 02:53:41;;;;;;;4.27;2.27;;;-2.70;99.90;;;;;;4928746;29;20245;-78
2021/12/26 02:56:08;;;;;;;2.23;2.03;;;-2.70;99.90;;;;;;4928075;29;20210;-79
2021/12/26 02:58:35;;;;;;;2.85;2.30;;;-2.70;99.90;;;;;;4927208;29;20468;-79
2021/12/26 03:01:06;;;;;;;5.27;2.80;;;-2.70;99.90;;;;;;4927637;29;20233;-80
2021/12/26 03:03:33;;;;;;;4.30;2.10;;;-2.70;99.90;;;;;;4928145;29;20221;-79
2021/12/26 03:06:02;;;;;;;3.63;1.80;;;-2.70;99.90;;;;;;4928553;29;20206;-79
2021/12/26 03:08:30;;;;;;;5.50;2.17;;;-2.70;99.90;;;;;;4930856;29;20304;-79
2021/12/26 03:10:59;;;;;;;4.40;1.93;;;-2.70;99.90;;;;;;4932305;29;20198;-79
2021/12/26 03:13:26;;;;;;;3.17;1.93;;;-2.70;99.90;;;;;;4931962;29;20209;-79
2021/12/26 03:15:53;;;;;;;3.33;2.40;;;-2.70;99.90;;;;;;4931048;29;20214;-80
2021/12/26 03:18:21;;;;;;;4.23;2.27;;;-2.80;99.90;;;;;;4931789;29;20221;-80
2021/12/26 03:20:50;;;;;;;5.47;2.30;;;-2.70;99.90;;;;;;4931159;29;20672;-78
2021/12/26 03:23:19;;;;;;;4.33;2.20;;;-2.70;99.90;;;;;;4931275;29;20524;-78
2021/12/26 03:25:46;;;;;;;2.47;2.10;;;-2.70;99.90;;;;;;4931967;29;20202;-78
2021/12/26 03:28:17;;;;;;;4.60;2.20;;;-2.70;99.90;;;;;;4931234;29;20202;-78
2021/12/26 03:30:44;;;;;;;3.17;1.87;;;-2.70;99.90;;;;;;4949047;29;20644;-79
2021/12/26 03:33:12;;;;;;;3.43;2.17;;;-2.70;99.90;;;;;;4948855;29;20241;-79
2021/12/26 03:35:40;;;;;;;3.67;2.57;;;-2.70;99.90;;;;;;4951001;29;20214;-80
2021/12/26 03:38:09;;;;;;;4.20;2.00;;;-2.80;99.90;;;;;;4939227;29;20209;-82
2021/12/26 03:40:36;;;;;;;3.77;1.97;;;-2.80;99.90;;;;;;4930707;29;20757;-79
2021/12/26 03:43:03;;;;;;;2.43;1.90;;;-2.80;99.90;;;;;;4930596;29;20229;-79
2021/12/26 03:45:32;;;;;;;2.73;1.87;;;-2.70;99.90;;;;;;4941257;29;20209;-78
2021/12/26 03:47:59;;;;;;;5.10;2.13;;;-2.70;99.90;;;;;;4934385;29;20214;-79
2021/12/26 03:50:27;;;;;;;3.40;2.00;;;-2.80;99.90;;;;;;4929803;29;20209;-79
2021/12/26 03:52:56;;;;;;;3.40;1.83;;;-2.80;99.90;;;;;;4945101;29;20213;-79
2021/12/26 03:55:25;;;;;;;4.65;2.90;;;-2.80;99.90;;;;;;4949026;29;20542;-79
2021/12/26 03:57:52;;;;;;;3.73;2.00;;;-2.80;99.90;;;;;;4949754;29;20233;-78
2021/12/26 04:00:20;;;;;;;4.77;2.00;;;-2.70;99.90;;;;;;4943564;29;20206;-80
2021/12/26 04:02:49;;;;;;;4.83;2.40;;;-2.70;99.90;;;;;;4930705;29;20222;-80
2021/12/26 04:05:17;;;;;;;3.47;2.40;;;-2.70;99.90;;;;;;4929945;29;20769;-79
2021/12/26 04:07:44;;;;;;;4.17;2.53;;;-2.70;99.90;;;;;;4930178;29;20298;-79
2021/12/26 04:10:13;;;;;;;4.23;2.40;;;-2.80;99.90;;;;;;4930831;29;20206;-79
2021/12/26 04:12:45;;;;;;;3.03;2.13;;;-2.80;99.90;;;;;;4929917;29;20221;-79
2021/12/26 04:15:14;;;;;;;4.53;1.90;;;-2.80;99.90;;;;;;4930669;29;20206;-80
2021/12/26 04:17:41;;;;;;;5.00;2.10;;;-2.80;99.90;;;;;;4930203;29;20730;-79
2021/12/26 04:20:11;;;;;;;3.03;2.03;;;-2.80;99.90;;;;;;4929522;29;20857;-78
2021/12/26 04:22:38;;;;;;;3.10;2.13;;;-2.80;99.90;;;;;;4930398;29;20234;-78
2021/12/26 04:25:06;;;;;;;3.17;2.27;;;-2.80;99.90;;;;;;4930794;29;20621;-78
2021/12/26 04:27:33;;;;;;;2.23;1.93;;;-2.70;99.90;;;;;;4929600;29;20216;-77
2021/12/26 04:30:01;;;;;;;3.63;2.27;;;-2.80;99.90;;;;;;4930066;29;20214;-79
2021/12/26 04:32:27;;;;;;;2.40;1.63;;;-2.70;99.90;;;;;;4929661;29;20246;-79
2021/12/26 04:34:54;;;;;;;3.97;2.10;;;-2.70;99.90;;;;;;4930795;29;20213;-80
2021/12/26 04:37:22;;;;;;;2.33;1.80;;;-2.70;99.90;;;;;;4930069;29;20292;-77
2021/12/26 04:39:49;;;;;;;2.87;1.87;;;-2.70;99.90;;;;;;4929478;29;20858;-78
2021/12/26 04:42:16;;;;;;;3.97;1.97;;;-2.80;99.90;;;;;;4930246;29;20233;-78
2021/12/26 04:44:43;;;;;;;4.88;2.72;;;-2.80;99.90;;;;;;4932748;29;20462;-78
2021/12/26 04:47:10;;;;;;;4.60;2.70;;;-2.70;99.90;;;;;;4948843;29;20209;-78
2021/12/26 04:49:37;;;;;;;4.03;2.50;;;-2.70;99.90;;;;;;4932756;29;21146;-79
2021/12/26 04:52:04;;;;;;;3.13;2.07;;;-2.70;99.90;;;;;;4930147;29;20202;-78
2021/12/26 04:54:33;;;;;;;4.50;2.78;;;-2.70;99.90;;;;;;4928630;29;20461;-79
2021/12/26 04:56:59;;;;;;;6.33;2.40;;;-2.60;99.90;;;;;;4929727;29;20210;-79
2021/12/26 04:59:27;;;;;;;3.67;2.07;;;-2.70;99.90;;;;;;4929996;29;20505;-79
2021/12/26 05:01:55;;;;;;;3.43;2.77;;;-2.60;99.90;;;;;;4929259;29;20355;-79
2021/12/26 05:04:22;;;;;;;3.20;2.57;;;-2.70;99.90;;;;;;4929439;29;20209;-79
2021/12/26 05:06:49;;;;;;;3.92;2.80;;;-2.60;99.90;;;;;;4928195;29;20474;-80
2021/12/26 05:09:16;;;;;;;2.73;2.30;;;-2.60;99.90;;;;;;4927942;29;20213;-79
2021/12/26 05:11:44;;;;;;;4.40;2.33;;;-2.60;99.90;;;;;;4947773;29;20212;-77
2021/12/26 05:14:11;;;;;;;4.28;2.80;;;-2.60;99.90;;;;;;4948667;29;20745;-78
2021/12/26 05:16:38;;;;;;;7.20;2.57;;;-2.60;99.90;;;;;;4944396;29;20214;-79
2021/12/26 05:19:05;;;;;;;3.67;2.03;;;-2.70;99.90;;;;;;4930055;29;20627;-79
2021/12/26 05:21:31;;;;;;;4.67;2.17;;;-2.70;99.90;;;;;;4930032;29;20576;-78
2021/12/26 05:23:58;;;;;;;4.93;2.30;;;-2.60;99.90;;;;;;4929664;29;20205;-78
2021/12/26 05:26:25;;;;;;;4.30;2.20;;;-2.70;99.90;;;;;;4929263;29;20225;-80
2021/12/26 05:28:54;;;;;;;2.83;2.00;;;-2.70;99.90;;;;;;4928164;29;20210;-79
2021/12/26 05:31:20;;;;;;;3.53;2.13;;;-2.70;99.90;;;;;;4928021;29;20213;-79
2021/12/26 05:33:47;;;;;;;5.90;2.40;;;-2.80;99.90;;;;;;4928214;29;20241;-79
2021/12/26 05:36:14;;;;;;;3.17;2.00;;;-2.80;99.90;;;;;;4929069;29;20209;-78
2021/12/26 05:38:41;;;;;;;4.30;2.20;;;-2.70;99.90;;;;;;4929079;29;20217;-79
2021/12/26 05:41:08;;;;;;;3.33;2.30;;;-2.80;99.90;;;;;;4929879;29;20213;-78
2021/12/26 05:43:34;;;;;;;4.20;2.53;;;-2.70;99.90;;;;;;4928385;29;20230;-79
2021/12/26 05:46:04;;;;;;;2.80;2.20;;;-2.70;99.90;;;;;;4943435;29;20236;-79
2021/12/26 05:48:31;;;;;;;4.72;2.90;;;-2.70;99.90;;;;;;4946751;29;20460;-78
2021/12/26 05:50:57;;;;;;;4.72;3.00;;;-2.60;99.90;;;;;;4928511;29;20469;-80
2021/12/26 05:53:24;;;;;;;5.97;2.60;;;-2.60;99.90;;;;;;4928726;29;20741;-79
2021/12/26 05:55:51;;;;;;;4.60;2.50;;;-2.60;99.90;;;;;;4929016;29;20214;-80
2021/12/26 05:58:18;;;;;;;3.83;2.30;;;-2.60;99.90;;;;;;4928116;29;20206;-79
2021/12/26 06:00:45;;;;;;;3.43;2.50;;;-2.70;99.90;;;;;;4927682;29;20476;-79
2021/12/26 06:03:13;;;;;;;3.88;2.72;;;-2.70;99.90;;;;;;4927186;29;20469;-80
2021/12/26 06:05:40;;;;;;;3.53;2.20;;;-2.60;99.90;;;;;;4927668;29;20489;-80
2021/12/26 06:08:07;;;;;;;2.50;2.10;;;-2.60;99.90;;;;;;4946395;29;20305;-80
2021/12/26 06:10:34;;;;;;;4.18;2.20;;;-2.60;99.90;;;;;;4947075;29;20459;-78
2021/12/26 06:13:00;;;;;;;2.80;2.03;;;-2.60;99.90;;;;;;4946620;29;20708;-78
2021/12/26 06:15:27;;;;;;;2.87;2.13;;;-2.60;99.90;;;;;;4947613;29;20197;-80
2021/12/26 06:17:54;;;;;;;3.47;2.40;;;-2.60;99.90;;;;;;4947882;29;20212;-79
2021/12/26 06:20:22;;;;;;;3.40;2.10;;;-2.60;99.90;;;;;;4946557;29;20292;-78
2021/12/26 06:22:49;;;;;;;3.13;2.07;;;-2.60;99.90;;;;;;4947776;29;20284;-80
2021/12/26 06:25:16;;;;;;;2.40;1.90;;;-2.60;99.90;;;;;;4947508;29;20610;-78
2021/12/26 06:27:44;;;;;;;4.13;1.93;;;-2.60;99.90;;;;;;4947721;29;20209;-79
2021/12/26 06:30:12;;;;;;;2.60;1.63;;;-2.60;99.90;;;;;;4943779;29;20206;-77
2021/12/26 06:32:39;;;;;;;3.77;2.87;;;-2.70;99.90;;;;;;4927450;29;20998;-80
2021/12/26 06:35:08;;;;;;;3.30;2.60;;;-2.70;99.90;;;;;;4928269;29;20859;-79
2021/12/26 06:37:37;;;;;;;3.77;2.10;;;-2.70;99.90;;;;;;4927316;29;20473;-79
2021/12/26 06:40:05;;;;;;;4.33;2.00;;;-2.70;99.90;;;;;;4927235;29;20234;-79
2021/12/26 06:42:33;;;;;;;2.87;1.90;;;-2.70;99.90;;;;;;4929791;29;20237;-80
2021/12/26 06:45:00;;;;;;;3.70;2.10;;;-2.70;99.90;;;;;;4938344;29;20233;-79
2021/12/26 06:47:27;;;;;;;4.63;2.23;;;-2.70;99.90;;;;;;4950690;29;20212;-79
2021/12/26 06:49:54;;;;;;;4.20;2.60;;;-2.70;99.90;;;;;;4951957;29;20205;-79
2021/12/26 06:52:21;;;;;;;3.40;2.03;;;-2.70;99.90;;;;;;4937726;29;20282;-79
2021/12/26 06:54:49;;;;;;;4.07;3.10;;;-2.70;99.90;;;;;;4931855;29;20202;-78
2021/12/26 06:57:16;;;;;;;3.40;2.65;;;-2.60;99.90;;;;;;4931976;29;20441;-78
2021/12/26 06:59:43;;;;;;;8.53;2.87;;;-2.70;99.90;;;;;;4932472;29;20206;-78
2021/12/26 07:02:10;;;;;;;3.13;2.73;;;-2.70;99.90;;;;;;4931602;29;20460;-81
2021/12/26 07:04:37;;;;;;;4.60;2.70;;;-2.70;99.90;;;;;;4931862;29;20229;-80
2021/12/26 07:07:04;;;;;;;4.13;2.42;;;-2.80;99.90;;;;;;4931111;29;20462;-80
2021/12/26 07:09:31;;;;;;;3.77;2.50;;;-2.70;99.90;;;;;;4931732;29;20213;-78
2021/12/26 07:11:59;;;;;;;4.33;2.20;;;-2.70;99.90;;;;;;4931443;29;20209;-79
2021/12/26 07:14:26;;;;;;;4.23;2.50;;;-2.70;99.90;;;;;;4944838;29;20216;-81
2021/12/26 07:16:53;;;;;;;4.87;2.57;;;-2.80;99.90;;;;;;4950367;29;20239;-79
2021/12/26 07:19:19;;;;;;;2.67;2.37;;;-2.80;99.90;;;;;;4940730;29;20332;-78
2021/12/26 07:21:46;;;;;;;3.33;2.53;;;-2.70;99.90;;;;;;4931537;29;20209;-79
2021/12/26 07:24:13;;;;;;;4.77;2.30;;;-2.80;99.90;;;;;;4931842;29;20221;-77
2021/12/26 07:26:40;;;;;;;6.10;2.43;;;-2.80;99.90;;;;;;4931981;29;20256;-77
2021/12/26 07:29:08;;;;;;;5.03;2.37;;;-2.80;99.90;;;;;;4931321;29;20206;-79
2021/12/26 07:31:35;;;;;;;4.05;3.35;;;-2.80;99.90;;;;;;4929449;29;20905;-80
2021/12/26 07:34:02;;;;;;;3.67;2.90;;;-2.70;99.90;;;;;;4931401;29;20234;-78
2021/12/26 07:36:29;;;;;;;5.00;2.60;;;-2.70;99.90;;;;;;4942420;29;20235;-78
2021/12/26 07:38:56;;;;;;;6.82;3.47;;;-2.70;99.90;;;;;;4949933;29;21117;-79
2021/12/26 07:41:23;;;;;;;3.77;2.70;;;-2.70;99.90;;;;;;4950174;29;20208;-79
2021/12/26 07:43:50;;;;;;;5.07;3.10;;;-2.70;99.90;;;;;;4949712;28;20260;-78
2021/12/26 07:46:18;;;;;;;4.88;3.58;;;-2.70;99.90;;;;;;4946358;29;20443;-77
2021/12/26 07:48:45;;;;;;;4.63;3.20;;;-2.70;99.90;;;;;;4937693;29;20476;-79
2021/12/26 07:51:12;;;;;;;5.80;3.40;;;-2.60;99.90;;;;;;4930912;29;20448;-78
2021/12/26 07:53:39;;;;;;;5.20;3.20;;;-2.60;99.90;;;;;;4930788;29;20225;-78
2021/12/26 07:56:06;;;;;;;3.33;2.60;;;-2.70;99.90;;;;;;4931118;29;20217;-76
2021/12/26 07:58:33;;;;;;;5.33;3.00;;;-2.70;99.90;;;;;;4929557;29;20780;-79
2021/12/26 08:01:00;;;;;;;5.07;2.97;;;-2.70;99.90;;;;;;4930305;29;20689;-77
2021/12/26 08:03:28;;;;;;;4.10;2.20;;;-2.80;99.90;;;;;;4929552;29;20226;-79
2021/12/26 08:05:55;;;;;;;4.43;3.30;;;-2.70;99.90;;;;;;4930274;29;20210;-80
2021/12/26 08:08:22;;;;;;;5.87;3.33;;;-2.70;99.90;;;;;;4930559;29;20299;-80
2021/12/26 08:10:48;;;;;;;4.33;2.93;;;-2.70;99.90;;;;;;4929777;29;20205;-79
2021/12/26 08:13:16;;;;;;;4.40;2.80;;;-2.80;99.90;;;;;;4931015;29;20415;-77
2021/12/26 08:15:43;;;;;;;4.83;2.90;;;-2.70;99.90;;;;;;4929881;29;20212;-78
2021/12/26 08:18:10;;;;;;;4.83;2.83;;;-2.70;99.90;;;;;;4930831;29;20230;-75
2021/12/26 08:20:38;;;;;;;4.93;3.10;;;-2.70;99.90;;;;;;4949452;29;20216;-79
2021/12/26 08:23:06;;;;;;;4.23;2.77;;;-2.70;99.90;;;;;;4950287;29;20225;-77
2021/12/26 08:25:33;;;;;;;4.17;2.40;;;-2.70;99.90;;;;;;4937938;29;20282;-78
2021/12/26 08:28:00;;;;;;;4.80;2.87;;;-2.70;99.90;;;;;;4930550;29;20210;-78
2021/12/26 08:30:27;;;;;;;3.67;2.40;;;-2.70;99.90;;;;;;4930062;29;20210;-78
2021/12/26 08:32:58;;;;;;;3.07;2.50;;;-2.70;99.90;;;;;;4929190;29;20257;-79
2021/12/26 08:35:25;;;;;;;3.93;2.53;;;-2.70;99.90;;;;;;4929167;29;20297;-80
2021/12/26 08:37:53;;;;;;;6.07;2.90;;;-2.70;99.90;;;;;;4929750;29;20214;-79
2021/12/26 08:40:20;;;;;;;4.53;2.73;;;-2.60;99.90;;;;;;4929063;29;20210;-79
2021/12/26 08:42:47;;;;;;;3.47;2.40;;;-2.60;99.90;;;;;;4929827;29;20233;-79
2021/12/26 08:45:14;;;;;;;2.53;2.10;;;-2.60;99.90;;;;;;4935204;29;20218;-81
2021/12/26 08:48:21;;;;;;;3.33;2.57;;;-2.50;99.90;;;;;;4908041;29;20521;-77
2021/12/26 08:50:48;;;;;;;3.67;2.60;;;-2.50;99.90;;;;;;4929356;29;20242;-78
2021/12/26 08:53:16;;;;;;;3.27;2.80;;;-2.50;99.90;;;;;;4928581;29;20209;-78
2021/12/26 08:55:43;;;;;;;3.73;2.30;;;-2.50;99.90;;;;;;4929121;29;20221;-78
2021/12/26 08:58:10;;;;;;;4.10;2.47;;;-2.50;99.90;;;;;;4929320;29;20194;-80
2021/12/26 09:00:38;;;;;;;3.53;2.67;;;-2.50;99.90;;;;;;4928117;29;20216;-80
2021/12/26 09:03:04;;;;;;;4.37;2.80;;;-2.40;99.90;;;;;;4929400;29;20229;-77
2021/12/26 09:05:32;;;;;;;5.67;3.27;;;-2.40;99.90;;;;;;4916387;29;20220;-78
2021/12/26 09:07:59;;;;;;;4.50;2.47;;;-2.40;99.90;;;;;;4929382;29;20244;-78
2021/12/26 09:10:28;;;;;;;4.27;2.77;;;-2.30;99.90;;;;;;4929150;29;20210;-77
2021/12/26 09:12:55;;;;;;;4.53;2.50;;;-2.30;99.90;;;;;;4929310;29;20221;-78
2021/12/26 09:15:22;;;;;;;6.53;3.33;;;-2.30;99.90;;;;;;4929031;29;20430;-79
2021/12/26 09:17:49;;;;;;;6.03;4.07;;;-2.30;99.90;;;;;;4929157;29;20206;-77
2021/12/26 09:20:16;;;;;;;5.70;2.90;;;-2.30;99.90;;;;;;4928805;29;20214;-79
2021/12/26 09:22:43;;;;;;;4.27;2.77;;;-2.20;99.90;;;;;;4928573;29;20333;-79
2021/12/26 09:25:12;;;;;;;5.50;2.53;;;-2.20;99.90;;;;;;4929498;29;20206;-79
2021/12/26 09:27:40;;;;;;;6.00;2.80;;;-2.20;99.90;;;;;;4928237;29;20283;-79
2021/12/26 09:30:08;;;;;;;3.20;2.80;;;-2.20;99.90;;;;;;4928758;29;20229;-79
2021/12/26 09:32:35;;;;;;;5.27;3.07;;;-2.20;99.90;;;;;;4928746;29;20242;-77
2021/12/26 09:35:02;;;;;;;3.50;3.00;;;-2.10;99.90;;;;;;4928361;29;20221;-78
2021/12/26 09:37:28;;;;;;;3.80;3.37;;;-2.10;99.90;;;;;;4928744;29;20221;-78
2021/12/26 09:39:55;;;;;;;3.93;2.50;;;-2.00;99.90;;;;;;4935223;29;20213;-76
2021/12/26 09:42:24;;;;;;;4.77;2.53;;;-2.00;99.90;;;;;;4946801;29;20202;-76
2021/12/26 09:44:53;;;;;;;4.10;2.77;;;-2.00;99.90;;;;;;4946955;28;20221;-78
2021/12/26 09:47:19;;;;;;;11.83;7.63;;;-2.00;99.90;;;;;;4937436;29;20213;-78
2021/12/26 09:49:47;;;;;;;16.03;7.30;;;-2.00;99.90;;;;;;4928697;29;20880;-77
2021/12/26 09:52:13;;;;;;;20.40;8.97;;;-1.90;99.90;;;;;;4930707;29;20603;-77
2021/12/26 09:54:42;;;;;;;63.03;24.53;;;-1.90;99.90;;;;;;4928520;29;20751;-78
2021/12/26 09:57:09;;;;;;;100.17;31.10;;;-1.80;99.90;;;;;;4927803;29;20300;-77
2021/12/26 09:59:37;;;;;;;19.07;9.17;;;-1.80;99.90;;;;;;4927054;29;20501;-80
2021/12/26 10:02:10;;;;;;;8.67;5.10;;;-1.70;99.90;;;;;;4927945;29;20280;-77
2021/12/26 10:04:38;;;;;;;7.97;5.27;;;-1.70;99.90;;;;;;4927257;29;20241;-79
2021/12/26 10:07:09;;;;;;;7.27;4.90;;;-1.70;99.90;;;;;;4928140;29;20202;-79
2021/12/26 10:09:38;;;;;;;5.83;3.33;;;-1.70;99.90;;;;;;4928123;29;20233;-78
2021/12/26 10:12:06;;;;;;;6.30;3.93;;;-1.70;99.90;;;;;;4926976;29;20225;-80
2021/12/26 10:14:37;;;;;;;5.53;3.47;;;-1.60;99.90;;;;;;4927920;29;20699;-78
2021/12/26 10:17:07;;;;;;;5.40;4.43;;;-1.60;99.90;;;;;;4927321;29;20249;-77
2021/12/26 10:19:36;;;;;;;4.93;3.40;;;-1.50;99.90;;;;;;4927887;29;20206;-77
2021/12/26 10:22:06;;;;;;;4.93;3.73;;;-1.50;99.90;;;;;;4927499;29;20901;-77
2021/12/26 10:24:35;;;;;;;4.67;3.23;;;-1.40;99.90;;;;;;4927015;29;20241;-77
2021/12/26 10:27:05;;;;;;;7.30;4.10;;;-1.40;99.90;;;;;;4927381;29;20213;-78
2021/12/26 10:29:33;;;;;;;6.80;4.37;;;-1.30;99.90;;;;;;4926923;29;20292;-79
2021/12/26 10:32:08;;;;;;;9.40;5.00;;;-1.20;99.90;;;;;;4927243;29;20221;-78
2021/12/26 10:34:40;;;;;;;7.93;5.17;;;-1.30;99.90;;;;;;4928011;29;20224;-76
2021/12/26 10:37:11;;;;;;;10.00;4.63;;;-1.20;99.90;;;;;;4927720;29;20237;-78
2021/12/26 10:39:42;;;;;;;13.70;6.57;;;-1.20;99.90;;;;;;4940158;29;20217;-77
2021/12/26 10:42:13;;;;;;;15.13;6.27;;;-1.10;99.90;;;;;;4946863;29;20511;-77
2021/12/26 10:44:42;;;;;;;7.03;4.33;;;-1.10;99.90;;;;;;4945904;28;20264;-79
2021/12/26 10:47:11;;;;;;;5.13;3.53;;;-1.10;99.90;;;;;;4929236;29;20228;-77
2021/12/26 10:49:48;;;;;;;6.90;4.57;;;-1.10;99.90;;;;;;4927286;29;20220;-77
2021/12/26 10:52:26;;;;;;;11.90;5.27;;;-1.00;99.90;;;;;;4926340;29;20224;-78
2021/12/26 10:54:57;;;;;;;8.80;5.50;;;-0.90;99.90;;;;;;4927749;29;20855;-74
2021/12/26 10:57:26;;;;;;;17.57;7.40;;;-0.90;99.90;;;;;;4928257;29;20636;-76
2021/12/26 11:00:11;;;;;;;7.67;3.97;;;-0.80;99.90;;;;;;4938066;29;20224;-77
2021/12/26 11:02:41;;;;;;;9.77;5.83;;;-0.80;99.90;;;;;;4944821;29;20205;-77
2021/12/26 11:05:11;;;;;;;7.87;4.50;;;-0.70;99.90;;;;;;4936883;29;20394;-78
2021/12/26 11:07:44;;;;;;;3.57;3.23;;;-0.70;99.90;;;;;;4926604;29;20209;-76
2021/12/26 11:10:15;;;;;;;5.77;4.73;;;-0.70;99.90;;;;;;4927350;29;20202;-77
2021/12/26 11:12:45;;;;;;;10.73;6.40;;;-0.60;99.90;;;;;;4926548;29;20874;-77
2021/12/26 11:15:13;;;;;;;6.57;3.53;;;-0.60;99.90;;;;;;4925951;29;20670;-77
2021/12/26 11:17:44;;;;;;;5.23;3.13;;;-0.50;99.90;;;;;;4925834;29;20217;-77
2021/12/26 11:20:23;;;;;;;4.13;3.30;;;-0.50;99.90;;;;;;4934255;29;20211;-77
2021/12/26 11:22:50;;;;;;;8.83;4.00;;;-0.40;99.90;;;;;;4945359;29;20202;-77
2021/12/26 11:25:17;;;;;;;5.97;3.90;;;-0.40;99.90;;;;;;4945725;29;20986;-77
2021/12/26 11:27:44;;;;;;;6.73;4.43;;;-0.40;99.90;;;;;;4942863;28;20220;-78
2021/12/26 11:30:11;;;;;;;7.23;4.33;;;-0.30;99.90;;;;;;4930586;29;20684;-77
2021/12/26 11:32:39;;;;;;;15.00;7.53;;;-0.30;99.90;;;;;;4930201;29;20249;-78
2021/12/26 11:35:08;;;;;;;9.07;5.30;;;-0.30;99.90;;;;;;4930428;29;20198;-78
2021/12/26 11:37:37;;;;;;;9.27;5.93;;;-0.20;99.90;;;;;;4933063;28;20308;-77
2021/12/26 11:40:07;;;;;;;8.37;5.57;;;-0.20;99.90;;;;;;4956267;28;20806;-77
2021/12/26 11:43:13;;;;;;;8.17;4.87;;;-0.10;99.90;;;;;;4960268;28;20215;-78
2021/12/26 11:45:46;;;;;;;7.20;4.37;;;-0.10;99.90;;;;;;4953539;28;20209;-76
2021/12/26 11:48:46;;;;;;;9.47;4.27;;;0.00;99.90;;;;;;4949360;29;20212;-77
2021/12/26 11:51:28;;;;;;;5.87;3.93;;;0.00;99.90;;;;;;4949410;29;20217;-77
2021/12/26 11:54:29;;;;;;;8.97;5.73;;;0.00;99.90;;;;;;4942903;29;20217;-77
2021/12/26 11:57:05;;;;;;;5.83;4.37;;;0.10;99.90;;;;;;4929992;29;20325;-78
2021/12/26 11:59:47;;;;;;;6.47;3.90;;;0.10;99.90;;;;;;4930055;29;20609;-78
2021/12/26 12:02:14;;;;;;;5.33;4.10;;;0.20;99.90;;;;;;4930681;29;20911;-78
2021/12/26 12:04:41;;;;;;;4.53;3.87;;;0.20;99.90;;;;;;4929335;29;20654;-78
2021/12/26 12:07:09;;;;;;;5.40;3.90;;;0.20;99.90;;;;;;4930898;29;20610;-79
2021/12/26 12:09:39;;;;;;;7.00;4.50;;;0.30;99.90;;;;;;4929348;29;20198;-79
2021/12/26 12:12:09;;;;;;;6.47;4.50;;;0.30;99.90;;;;;;4929234;29;20293;-78
2021/12/26 12:14:52;;;;;;;16.73;8.97;;;0.30;99.90;;;;;;4930123;29;20246;-78
2021/12/26 12:17:22;;;;;;;17.73;9.60;;;0.30;99.90;;;;;;4930062;29;20203;-79
2021/12/26 12:20:09;;;;;;;5.40;4.40;;;0.40;99.90;;;;;;4928861;29;20242;-78
2021/12/26 12:22:36;;;;;;;15.63;8.13;;;0.40;99.90;;;;;;4930052;29;20254;-78
2021/12/26 12:25:38;;;;;;;11.00;4.80;;;0.50;99.90;;;;;;4929611;29;20226;-78
2021/12/26 12:28:08;;;;;;;17.67;7.77;;;0.60;99.90;;;;;;4926651;29;20572;-77
2021/12/26 12:30:36;;;;;;;15.60;6.97;;;0.70;99.90;;;;;;4928416;29;20217;-77
2021/12/26 12:33:14;;;;;;;16.80;7.60;;;0.80;99.90;;;;;;4930098;29;20245;-78
2021/12/26 12:35:52;;;;;;;5.43;4.33;;;0.80;99.90;;;;;;4944736;29;20220;-77
2021/12/26 12:38:32;;;;;;;34.73;13.47;;;0.90;99.90;;;;;;4947921;29;20208;-79
2021/12/26 12:41:00;;;;;;;12.07;6.87;;;0.90;99.90;;;;;;4940757;28;20754;-78
2021/12/26 12:43:30;;;;;;;36.80;14.53;;;0.90;99.90;;;;;;4928748;29;20744;-78
2021/12/26 12:46:06;;;;;;;40.03;16.80;;;0.80;99.90;;;;;;4943366;29;20212;-78
2021/12/26 12:48:38;;;;;;;24.77;11.97;;;0.90;99.90;;;;;;4948578;29;20193;-78
2021/12/26 12:51:38;;;;;;;35.37;15.17;;;0.80;99.90;;;;;;4938878;29;20206;-77
2021/12/26 12:54:30;;;;;;;13.10;6.37;;;0.80;99.90;;;;;;4929600;29;20194;-79
2021/12/26 12:56:58;;;;;;;11.83;6.73;;;0.80;99.90;;;;;;4948357;29;20313;-79